Terminal Aerodrome Forecast
Issued by NWS

Home | Current Version | Previous Version | Text Only | Print | Product List | Glossary On
Versions: 1 2 3 4 5 6 7 8 9 10 11 12 13 14 15 16 17 18 19 20 21 22
000
FTUS41 KBOX 260202 AAA
TAFACK
TAF AMD
KACK 260202Z 2602/2624 20011KT P6SM SCT100
     FM260600 21012G19KT P6SM BKN070
     FM261200 22012G19KT 5SM BR BKN030
     FM261400 22013KT P6SM BKN045
     FM261800 21014KT P6SM VCSH BKN100=

USA.gov is the U.S. government's official web portal to all federal, state and local government web resources and services.